sensor_id;sensor_type;location;lat;lon;timestamp;temperature;humidity
30304;DHT22;17112;48.636;10.152;2022-12-29T00:01:40;6.90;71.20
30304;DHT22;17112;48.636;10.152;2022-12-29T00:04:06;6.90;71.20
30304;DHT22;17112;48.636;10.152;2022-12-29T00:06:32;6.90;71.20
30304;DHT22;17112;48.636;10.152;2022-12-29T00:08:57;6.90;71.30
30304;DHT22;17112;48.636;10.152;2022-12-29T00:11:25;6.80;71.30
30304;DHT22;17112;48.636;10.152;2022-12-29T00:13:52;6.80;71.30
30304;DHT22;17112;48.636;10.152;2022-12-29T00:16:36;6.80;71.30
30304;DHT22;17112;48.636;10.152;2022-12-29T00:19:02;6.80;71.50
30304;DHT22;17112;48.636;10.152;2022-12-29T00:21:29;6.80;71.20
30304;DHT22;17112;48.636;10.152;2022-12-29T00:24:16;6.80;71.40
30304;DHT22;17112;48.636;10.152;2022-12-29T00:26:57;6.80;71.50
30304;DHT22;17112;48.636;10.152;2022-12-29T00:29:42;6.70;71.60
30304;DHT22;17112;48.636;10.152;2022-12-29T00:32:26;6.80;71.60
30304;DHT22;17112;48.636;10.152;2022-12-29T00:35:14;6.70;71.60
30304;DHT22;17112;48.636;10.152;2022-12-29T00:37:42;6.70;71.70
30304;DHT22;17112;48.636;10.152;2022-12-29T00:40:27;6.70;71.80
30304;DHT22;17112;48.636;10.152;2022-12-29T00:43:12;6.70;71.80
30304;DHT22;17112;48.636;10.152;2022-12-29T00:45:56;6.70;72.00
30304;DHT22;17112;48.636;10.152;2022-12-29T00:48:22;6.70;71.60
30304;DHT22;17112;48.636;10.152;2022-12-29T00:51:07;6.70;71.80
30304;DHT22;17112;48.636;10.152;2022-12-29T00:53:33;6.70;72.00
30304;DHT22;17112;48.636;10.152;2022-12-29T00:55:59;6.70;72.00
30304;DHT22;17112;48.636;10.152;2022-12-29T00:58:29;6.70;72.10
30304;DHT22;17112;48.636;10.152;2022-12-29T01:01:05;6.70;72.30
30304;DHT22;17112;48.636;10.152;2022-12-29T01:03:31;6.70;72.40
30304;DHT22;17112;48.636;10.152;2022-12-29T01:06:00;6.70;72.30
30304;DHT22;17112;48.636;10.152;2022-12-29T01:08:30;6.70;72.50
30304;DHT22;17112;48.636;10.152;2022-12-29T01:11:00;6.70;72.50
30304;DHT22;17112;48.636;10.152;2022-12-29T01:13:26;6.80;72.60
30304;DHT22;17112;48.636;10.152;2022-12-29T01:15:52;6.70;72.50
30304;DHT22;17112;48.636;10.152;2022-12-29T01:18:18;6.80;72.60
30304;DHT22;17112;48.636;10.152;2022-12-29T01:20:50;6.80;73.30
30304;DHT22;17112;48.636;10.152;2022-12-29T01:23:16;6.80;72.60
30304;DHT22;17112;48.636;10.152;2022-12-29T01:25:42;6.80;72.70
30304;DHT22;17112;48.636;10.152;2022-12-29T01:28:07;6.80;72.70
30304;DHT22;17112;48.636;10.152;2022-12-29T01:30:34;6.90;72.80
30304;DHT22;17112;48.636;10.152;2022-12-29T01:33:00;6.90;73.50
30304;DHT22;17112;48.636;10.152;2022-12-29T01:35:26;6.90;72.70
30304;DHT22;17112;48.636;10.152;2022-12-29T01:37:52;6.90;72.60
30304;DHT22;17112;48.636;10.152;2022-12-29T01:40:18;6.90;73.20
30304;DHT22;17112;48.636;10.152;2022-12-29T01:42:44;7.00;72.50
30304;DHT22;17112;48.636;10.152;2022-12-29T01:45:14;7.00;72.50
30304;DHT22;17112;48.636;10.152;2022-12-29T01:47:46;7.00;73.30
30304;DHT22;17112;48.636;10.152;2022-12-29T01:52:56;7.00;72.60
30304;DHT22;17112;48.636;10.152;2022-12-29T01:55:23;7.00;72.70
30304;DHT22;17112;48.636;10.152;2022-12-29T01:57:51;7.00;72.60
30304;DHT22;17112;48.636;10.152;2022-12-29T02:00:18;7.00;72.70
30304;DHT22;17112;48.636;10.152;2022-12-29T02:02:50;7.10;72.70
30304;DHT22;17112;48.636;10.152;2022-12-29T02:07:54;7.10;72.80
30304;DHT22;17112;48.636;10.152;2022-12-29T02:10:24;7.10;73.40
30304;DHT22;17112;48.636;10.152;2022-12-29T02:12:51;7.10;72.70
30304;DHT22;17112;48.636;10.152;2022-12-29T02:37:05;7.60;71.70
30304;DHT22;17112;48.636;10.152;2022-12-29T02:40:52;7.70;71.70
30304;DHT22;17112;48.636;10.152;2022-12-29T02:42:50;7.80;71.30
30304;DHT22;17112;48.636;10.152;2022-12-29T02:50:43;8.00;70.90
30304;DHT22;17112;48.636;10.152;2022-12-29T02:53:15;8.10;70.20
30304;DHT22;17112;48.636;10.152;2022-12-29T02:55:49;8.20;70.30
30304;DHT22;17112;48.636;10.152;2022-12-29T02:58:19;8.30;70.20
30304;DHT22;17112;48.636;10.152;2022-12-29T03:03:36;8.50;69.50
30304;DHT22;17112;48.636;10.152;2022-12-29T03:06:23;8.50;69.70
30304;DHT22;17112;48.636;10.152;2022-12-29T03:09:14;8.60;69.10
30304;DHT22;17112;48.636;10.152;2022-12-29T03:11:59;8.70;69.20
30304;DHT22;17112;48.636;10.152;2022-12-29T03:15:01;8.70;68.60
30304;DHT22;17112;48.636;10.152;2022-12-29T03:18:06;8.70;68.30
30304;DHT22;17112;48.636;10.152;2022-12-29T03:20:54;8.70;68.70
30304;DHT22;17112;48.636;10.152;2022-12-29T03:23:22;8.70;68.00
30304;DHT22;17112;48.636;10.152;2022-12-29T03:25:51;8.80;68.50
30304;DHT22;17112;48.636;10.152;2022-12-29T03:28:35;8.80;68.30
30304;DHT22;17112;48.636;10.152;2022-12-29T03:31:03;8.80;68.10
30304;DHT22;17112;48.636;10.152;2022-12-29T03:33:30;8.80;68.00
30304;DHT22;17112;48.636;10.152;2022-12-29T03:36:03;8.80;67.90
30304;DHT22;17112;48.636;10.152;2022-12-29T03:38:46;8.80;67.70
30304;DHT22;17112;48.636;10.152;2022-12-29T03:41:18;8.80;67.50
30304;DHT22;17112;48.636;10.152;2022-12-29T03:43:46;8.80;67.60
30304;DHT22;17112;48.636;10.152;2022-12-29T03:46:12;8.80;67.70
30304;DHT22;17112;48.636;10.152;2022-12-29T03:48:37;8.70;67.40
30304;DHT22;17112;48.636;10.152;2022-12-29T03:51:03;8.80;67.50
30304;DHT22;17112;48.636;10.152;2022-12-29T03:53:29;8.80;67.50
30304;DHT22;17112;48.636;10.152;2022-12-29T03:55:54;8.70;67.40
30304;DHT22;17112;48.636;10.152;2022-12-29T03:58:20;8.80;67.30
30304;DHT22;17112;48.636;10.152;2022-12-29T04:00:46;8.70;67.20
30304;DHT22;17112;48.636;10.152;2022-12-29T04:03:11;8.70;67.10
30304;DHT22;17112;48.636;10.152;2022-12-29T04:05:37;8.70;67.00
30304;DHT22;17112;48.636;10.152;2022-12-29T04:08:02;8.70;66.60
30304;DHT22;17112;48.636;10.152;2022-12-29T04:10:28;8.70;66.80
30304;DHT22;17112;48.636;10.152;2022-12-29T04:12:54;8.70;67.00
30304;DHT22;17112;48.636;10.152;2022-12-29T04:15:19;8.70;67.10
30304;DHT22;17112;48.636;10.152;2022-12-29T04:17:45;8.70;67.20
30304;DHT22;17112;48.636;10.152;2022-12-29T04:20:10;8.60;67.10
30304;DHT22;17112;48.636;10.152;2022-12-29T04:23:05;8.60;67.10
30304;DHT22;17112;48.636;10.152;2022-12-29T04:25:32;8.60;67.00
30304;DHT22;17112;48.636;10.152;2022-12-29T04:27:58;8.50;67.20
30304;DHT22;17112;48.636;10.152;2022-12-29T04:30:24;8.50;67.20
30304;DHT22;17112;48.636;10.152;2022-12-29T04:32:50;8.50;67.10
30304;DHT22;17112;48.636;10.152;2022-12-29T04:35:16;8.50;67.20
30304;DHT22;17112;48.636;10.152;2022-12-29T04:37:41;8.40;67.20
30304;DHT22;17112;48.636;10.152;2022-12-29T04:40:07;8.40;67.10
30304;DHT22;17112;48.636;10.152;2022-12-29T04:42:33;8.40;67.10
30304;DHT22;17112;48.636;10.152;2022-12-29T04:44:59;8.40;67.10
30304;DHT22;17112;48.636;10.152;2022-12-29T04:47:25;8.40;67.00
30304;DHT22;17112;48.636;10.152;2022-12-29T04:49:50;8.30;67.00
30304;DHT22;17112;48.636;10.152;2022-12-29T04:52:16;8.30;66.90
30304;DHT22;17112;48.636;10.152;2022-12-29T04:54:41;8.30;66.90
30304;DHT22;17112;48.636;10.152;2022-12-29T04:57:07;8.30;66.80
30304;DHT22;17112;48.636;10.152;2022-12-29T04:59:33;8.20;66.70
30304;DHT22;17112;48.636;10.152;2022-12-29T05:01:58;8.20;67.00
30304;DHT22;17112;48.636;10.152;2022-12-29T05:04:24;8.20;66.90
30304;DHT22;17112;48.636;10.152;2022-12-29T05:06:50;8.20;66.80
30304;DHT22;17112;48.636;10.152;2022-12-29T05:09:15;8.20;66.70
30304;DHT22;17112;48.636;10.152;2022-12-29T05:11:41;8.20;66.80
30304;DHT22;17112;48.636;10.152;2022-12-29T05:14:06;8.20;66.70
30304;DHT22;17112;48.636;10.152;2022-12-29T05:16:32;8.20;66.50
30304;DHT22;17112;48.636;10.152;2022-12-29T05:18:58;8.20;66.50
30304;DHT22;17112;48.636;10.152;2022-12-29T05:21:23;8.20;66.40
30304;DHT22;17112;48.636;10.152;2022-12-29T05:23:49;8.20;66.40
30304;DHT22;17112;48.636;10.152;2022-12-29T05:26:14;8.10;66.30
30304;DHT22;17112;48.636;10.152;2022-12-29T05:28:40;8.10;66.40
30304;DHT22;17112;48.636;10.152;2022-12-29T05:31:06;8.00;66.40
30304;DHT22;17112;48.636;10.152;2022-12-29T05:33:31;8.00;66.50
30304;DHT22;17112;48.636;10.152;2022-12-29T05:36:04;8.00;66.50
30304;DHT22;17112;48.636;10.152;2022-12-29T05:38:29;7.90;66.50
30304;DHT22;17112;48.636;10.152;2022-12-29T05:40:55;7.90;66.50
30304;DHT22;17112;48.636;10.152;2022-12-29T05:43:20;7.80;66.60
30304;DHT22;17112;48.636;10.152;2022-12-29T05:45:48;7.80;66.60
30304;DHT22;17112;48.636;10.152;2022-12-29T05:48:15;7.70;66.70
30304;DHT22;17112;48.636;10.152;2022-12-29T05:50:41;7.60;66.80
30304;DHT22;17112;48.636;10.152;2022-12-29T05:53:06;7.60;67.00
30304;DHT22;17112;48.636;10.152;2022-12-29T05:55:32;7.60;67.20
30304;DHT22;17112;48.636;10.152;2022-12-29T05:57:58;7.60;67.40
30304;DHT22;17112;48.636;10.152;2022-12-29T06:00:23;7.60;67.60
30304;DHT22;17112;48.636;10.152;2022-12-29T06:02:49;7.60;67.70
30304;DHT22;17112;48.636;10.152;2022-12-29T06:05:15;7.60;67.70
30304;DHT22;17112;48.636;10.152;2022-12-29T06:07:41;7.60;67.80
30304;DHT22;17112;48.636;10.152;2022-12-29T06:10:07;7.70;67.80
30304;DHT22;17112;48.636;10.152;2022-12-29T06:12:32;7.70;67.80
30304;DHT22;17112;48.636;10.152;2022-12-29T06:14:58;7.80;67.80
30304;DHT22;17112;48.636;10.152;2022-12-29T06:17:23;7.80;67.80
30304;DHT22;17112;48.636;10.152;2022-12-29T06:19:49;7.80;67.70
30304;DHT22;17112;48.636;10.152;2022-12-29T06:22:15;7.90;67.80
30304;DHT22;17112;48.636;10.152;2022-12-29T06:24:40;7.90;67.60
30304;DHT22;17112;48.636;10.152;2022-12-29T06:27:06;8.00;67.60
30304;DHT22;17112;48.636;10.152;2022-12-29T06:29:32;8.00;67.60
30304;DHT22;17112;48.636;10.152;2022-12-29T06:31:58;8.00;67.60
30304;DHT22;17112;48.636;10.152;2022-12-29T06:34:24;8.00;67.40
30304;DHT22;17112;48.636;10.152;2022-12-29T06:36:50;8.00;67.30
30304;DHT22;17112;48.636;10.152;2022-12-29T06:39:16;8.00;67.20
30304;DHT22;17112;48.636;10.152;2022-12-29T06:41:41;8.10;67.30
30304;DHT22;17112;48.636;10.152;2022-12-29T06:44:07;8.10;67.30
30304;DHT22;17112;48.636;10.152;2022-12-29T06:46:32;8.00;67.20
30304;DHT22;17112;48.636;10.152;2022-12-29T06:48:58;8.00;67.30
30304;DHT22;17112;48.636;10.152;2022-12-29T06:51:24;8.00;67.40
30304;DHT22;17112;48.636;10.152;2022-12-29T06:53:49;8.00;67.40
30304;DHT22;17112;48.636;10.152;2022-12-29T06:56:15;8.00;67.40
30304;DHT22;17112;48.636;10.152;2022-12-29T06:58:40;8.00;67.40
30304;DHT22;17112;48.636;10.152;2022-12-29T07:01:06;8.00;67.50
30304;DHT22;17112;48.636;10.152;2022-12-29T07:03:32;8.00;67.70
30304;DHT22;17112;48.636;10.152;2022-12-29T07:05:58;8.00;67.80
30304;DHT22;17112;48.636;10.152;2022-12-29T07:08:24;8.00;67.90
30304;DHT22;17112;48.636;10.152;2022-12-29T07:10:50;8.00;67.90
30304;DHT22;17112;48.636;10.152;2022-12-29T07:13:15;8.00;67.90
30304;DHT22;17112;48.636;10.152;2022-12-29T07:15:41;8.00;67.90
30304;DHT22;17112;48.636;10.152;2022-12-29T07:18:06;8.00;68.00
30304;DHT22;17112;48.636;10.152;2022-12-29T07:20:32;8.00;68.00
30304;DHT22;17112;48.636;10.152;2022-12-29T07:22:58;8.00;68.00
30304;DHT22;17112;48.636;10.152;2022-12-29T07:25:24;8.00;68.00
30304;DHT22;17112;48.636;10.152;2022-12-29T07:27:50;8.00;68.00
30304;DHT22;17112;48.636;10.152;2022-12-29T07:30:15;8.00;68.10
30304;DHT22;17112;48.636;10.152;2022-12-29T07:32:41;8.00;68.30
30304;DHT22;17112;48.636;10.152;2022-12-29T07:35:07;8.00;68.60
30304;DHT22;17112;48.636;10.152;2022-12-29T07:37:33;8.00;68.80
30304;DHT22;17112;48.636;10.152;2022-12-29T07:40:00;8.10;68.90
30304;DHT22;17112;48.636;10.152;2022-12-29T07:42:26;8.10;69.00
30304;DHT22;17112;48.636;10.152;2022-12-29T07:44:52;8.20;69.00
30304;DHT22;17112;48.636;10.152;2022-12-29T07:47:18;8.30;69.10
30304;DHT22;17112;48.636;10.152;2022-12-29T07:49:43;8.30;69.00
30304;DHT22;17112;48.636;10.152;2022-12-29T07:52:09;8.40;69.00
30304;DHT22;17112;48.636;10.152;2022-12-29T07:54:35;8.40;69.00
30304;DHT22;17112;48.636;10.152;2022-12-29T07:57:00;8.50;68.90
30304;DHT22;17112;48.636;10.152;2022-12-29T07:59:26;8.60;68.90
30304;DHT22;17112;48.636;10.152;2022-12-29T08:01:52;8.60;68.80
30304;DHT22;17112;48.636;10.152;2022-12-29T08:04:17;8.70;68.80
30304;DHT22;17112;48.636;10.152;2022-12-29T08:06:43;8.70;68.70
30304;DHT22;17112;48.636;10.152;2022-12-29T08:09:10;8.80;68.70
30304;DHT22;17112;48.636;10.152;2022-12-29T08:11:36;8.80;68.60
30304;DHT22;17112;48.636;10.152;2022-12-29T08:14:02;8.90;68.60
30304;DHT22;17112;48.636;10.152;2022-12-29T08:16:28;8.90;68.60
30304;DHT22;17112;48.636;10.152;2022-12-29T08:18:54;9.00;68.70
30304;DHT22;17112;48.636;10.152;2022-12-29T08:21:19;9.00;68.70
30304;DHT22;17112;48.636;10.152;2022-12-29T08:23:45;9.00;68.70
30304;DHT22;17112;48.636;10.152;2022-12-29T08:26:10;9.10;68.70
30304;DHT22;17112;48.636;10.152;2022-12-29T08:28:36;9.20;68.70
30304;DHT22;17112;48.636;10.152;2022-12-29T08:31:02;9.20;68.70
30304;DHT22;17112;48.636;10.152;2022-12-29T08:33:28;9.20;68.70
30304;DHT22;17112;48.636;10.152;2022-12-29T08:36:02;9.30;68.60
30304;DHT22;17112;48.636;10.152;2022-12-29T08:38:28;9.40;68.60
30304;DHT22;17112;48.636;10.152;2022-12-29T08:40:55;9.40;68.50
30304;DHT22;17112;48.636;10.152;2022-12-29T08:43:21;9.40;68.50
30304;DHT22;17112;48.636;10.152;2022-12-29T08:45:46;9.50;68.50
30304;DHT22;17112;48.636;10.152;2022-12-29T08:48:12;9.50;68.40
30304;DHT22;17112;48.636;10.152;2022-12-29T08:50:38;9.60;68.40
30304;DHT22;17112;48.636;10.152;2022-12-29T08:53:03;9.60;68.30
30304;DHT22;17112;48.636;10.152;2022-12-29T08:55:29;9.70;68.30
30304;DHT22;17112;48.636;10.152;2022-12-29T08:57:54;9.70;68.20
30304;DHT22;17112;48.636;10.152;2022-12-29T09:00:20;9.70;68.20
30304;DHT22;17112;48.636;10.152;2022-12-29T09:02:46;9.80;68.10
30304;DHT22;17112;48.636;10.152;2022-12-29T09:05:12;9.90;68.20
30304;DHT22;17112;48.636;10.152;2022-12-29T09:07:38;9.90;68.10
30304;DHT22;17112;48.636;10.152;2022-12-29T09:10:04;10.00;67.90
30304;DHT22;17112;48.636;10.152;2022-12-29T09:12:30;10.00;67.90
30304;DHT22;17112;48.636;10.152;2022-12-29T09:14:56;10.10;67.80
30304;DHT22;17112;48.636;10.152;2022-12-29T09:17:21;10.20;67.80
30304;DHT22;17112;48.636;10.152;2022-12-29T09:20:06;10.20;67.80
30304;DHT22;17112;48.636;10.152;2022-12-29T09:22:32;10.30;67.80
30304;DHT22;17112;48.636;10.152;2022-12-29T09:24:58;10.40;67.80
30304;DHT22;17112;48.636;10.152;2022-12-29T09:27:23;10.50;67.80
30304;DHT22;17112;48.636;10.152;2022-12-29T09:29:49;10.60;67.90
30304;DHT22;17112;48.636;10.152;2022-12-29T09:32:14;10.80;67.70
30304;DHT22;17112;48.636;10.152;2022-12-29T09:34:40;10.90;67.50
30304;DHT22;17112;48.636;10.152;2022-12-29T09:37:06;11.00;67.30
30304;DHT22;17112;48.636;10.152;2022-12-29T09:39:31;11.10;66.80
30304;DHT22;17112;48.636;10.152;2022-12-29T09:45:16;11.40;66.20
30304;DHT22;17112;48.636;10.152;2022-12-29T09:47:44;11.60;65.90
30304;DHT22;17112;48.636;10.152;2022-12-29T09:50:23;11.70;65.60
30304;DHT22;17112;48.636;10.152;2022-12-29T09:52:55;11.80;64.60
30304;DHT22;17112;48.636;10.152;2022-12-29T09:55:30;11.90;64.60
30304;DHT22;17112;48.636;10.152;2022-12-29T09:58:04;11.90;64.30
30304;DHT22;17112;48.636;10.152;2022-12-29T10:03:17;11.90;63.30
30304;DHT22;17112;48.636;10.152;2022-12-29T10:20:54;12.10;63.70
30304;DHT22;17112;48.636;10.152;2022-12-29T10:23:30;12.20;63.40
30304;DHT22;17112;48.636;10.152;2022-12-29T10:25:59;12.20;63.80
30304;DHT22;17112;48.636;10.152;2022-12-29T10:28:50;12.30;64.00
30304;DHT22;17112;48.636;10.152;2022-12-29T10:31:23;12.30;63.00
30304;DHT22;17112;48.636;10.152;2022-12-29T10:33:59;12.30;63.80
30304;DHT22;17112;48.636;10.152;2022-12-29T10:36:38;12.40;64.40
30304;DHT22;17112;48.636;10.152;2022-12-29T10:39:30;12.40;63.70
30304;DHT22;17112;48.636;10.152;2022-12-29T10:44:51;12.50;63.30
30304;DHT22;17112;48.636;10.152;2022-12-29T10:47:23;12.60;63.70
30304;DHT22;17112;48.636;10.152;2022-12-29T10:49:50;12.60;63.50
30304;DHT22;17112;48.636;10.152;2022-12-29T10:52:17;12.70;63.30
30304;DHT22;17112;48.636;10.152;2022-12-29T10:55:00;12.70;63.60
30304;DHT22;17112;48.636;10.152;2022-12-29T10:59:53;12.80;63.30
30304;DHT22;17112;48.636;10.152;2022-12-29T11:08:08;12.90;61.90
30304;DHT22;17112;48.636;10.152;2022-12-29T11:10:40;13.00;62.70
30304;DHT22;17112;48.636;10.152;2022-12-29T11:13:18;12.90;62.30
30304;DHT22;17112;48.636;10.152;2022-12-29T11:15:46;12.90;62.20
30304;DHT22;17112;48.636;10.152;2022-12-29T11:18:23;13.00;62.50
30304;DHT22;17112;48.636;10.152;2022-12-29T11:20:57;12.90;62.10
30304;DHT22;17112;48.636;10.152;2022-12-29T11:23:37;12.90;62.50
30304;DHT22;17112;48.636;10.152;2022-12-29T11:26:14;12.80;62.50
30304;DHT22;17112;48.636;10.152;2022-12-29T11:28:43;12.80;62.50
30304;DHT22;17112;48.636;10.152;2022-12-29T11:31:09;12.80;62.70
30304;DHT22;17112;48.636;10.152;2022-12-29T11:33:37;12.70;62.70
30304;DHT22;17112;48.636;10.152;2022-12-29T11:36:11;12.70;62.80
30304;DHT22;17112;48.636;10.152;2022-12-29T11:38:41;12.70;62.80
30304;DHT22;17112;48.636;10.152;2022-12-29T11:41:12;12.70;63.20
30304;DHT22;17112;48.636;10.152;2022-12-29T11:43:41;12.60;63.10
30304;DHT22;17112;48.636;10.152;2022-12-29T11:46:16;12.70;63.40
30304;DHT22;17112;48.636;10.152;2022-12-29T11:48:43;12.60;63.30
30304;DHT22;17112;48.636;10.152;2022-12-29T11:51:10;12.60;63.50
30304;DHT22;17112;48.636;10.152;2022-12-29T11:53:43;12.60;63.60
30304;DHT22;17112;48.636;10.152;2022-12-29T11:56:12;12.60;63.70
30304;DHT22;17112;48.636;10.152;2022-12-29T11:58:39;12.60;63.80
30304;DHT22;17112;48.636;10.152;2022-12-29T12:01:30;12.60;64.00
30304;DHT22;17112;48.636;10.152;2022-12-29T12:04:00;12.60;64.00
30304;DHT22;17112;48.636;10.152;2022-12-29T12:06:27;12.70;64.00
30304;DHT22;17112;48.636;10.152;2022-12-29T12:08:57;12.70;64.10
30304;DHT22;17112;48.636;10.152;2022-12-29T12:11:29;12.80;63.90
30304;DHT22;17112;48.636;10.152;2022-12-29T12:17:11;12.90;63.60
30304;DHT22;17112;48.636;10.152;2022-12-29T12:19:46;12.90;64.10
30304;DHT22;17112;48.636;10.152;2022-12-29T12:22:28;13.00;64.60
30304;DHT22;17112;48.636;10.152;2022-12-29T12:25:23;13.00;64.00
30304;DHT22;17112;48.636;10.152;2022-12-29T12:27:56;13.00;63.90
30304;DHT22;17112;48.636;10.152;2022-12-29T12:30:25;13.10;64.00
30304;DHT22;17112;48.636;10.152;2022-12-29T12:38:11;13.10;63.30
30304;DHT22;17112;48.636;10.152;2022-12-29T12:43:41;13.20;63.40
30304;DHT22;17112;48.636;10.152;2022-12-29T12:46:18;13.20;63.40
30304;DHT22;17112;48.636;10.152;2022-12-29T12:52:00;13.20;63.20
30304;DHT22;17112;48.636;10.152;2022-12-29T13:00:14;13.20;63.10
30304;DHT22;17112;48.636;10.152;2022-12-29T13:08:41;13.20;63.20
30304;DHT22;17112;48.636;10.152;2022-12-29T13:11:38;13.20;63.40
30304;DHT22;17112;48.636;10.152;2022-12-29T13:14:14;13.20;63.40
30304;DHT22;17112;48.636;10.152;2022-12-29T13:16:57;13.20;63.60
30304;DHT22;17112;48.636;10.152;2022-12-29T13:24:35;13.10;64.10
30304;DHT22;17112;48.636;10.152;2022-12-29T13:30:10;13.10;64.50
30304;DHT22;17112;48.636;10.152;2022-12-29T13:35:48;13.10;64.90
30304;DHT22;17112;48.636;10.152;2022-12-29T13:41:02;13.00;65.00
30304;DHT22;17112;48.636;10.152;2022-12-29T13:43:32;13.00;65.10
30304;DHT22;17112;48.636;10.152;2022-12-29T13:46:05;13.00;65.00
30304;DHT22;17112;48.636;10.152;2022-12-29T13:48:39;13.00;65.10
30304;DHT22;17112;48.636;10.152;2022-12-29T13:51:08;13.00;65.30
30304;DHT22;17112;48.636;10.152;2022-12-29T14:02:01;12.90;65.70
30304;DHT22;17112;48.636;10.152;2022-12-29T14:04:29;12.90;65.70
30304;DHT22;17112;48.636;10.152;2022-12-29T14:07:04;12.90;65.80
30304;DHT22;17112;48.636;10.152;2022-12-29T14:12:40;12.80;66.10
30304;DHT22;17112;48.636;10.152;2022-12-29T14:17:37;12.80;66.40
30304;DHT22;17112;48.636;10.152;2022-12-29T14:20:06;12.90;66.50
30304;DHT22;17112;48.636;10.152;2022-12-29T14:23:14;12.80;66.50
30304;DHT22;17112;48.636;10.152;2022-12-29T14:25:57;12.80;66.80
30304;DHT22;17112;48.636;10.152;2022-12-29T14:28:39;12.80;66.80
30304;DHT22;17112;48.636;10.152;2022-12-29T14:34:27;12.90;67.20
30304;DHT22;17112;48.636;10.152;2022-12-29T14:37:02;12.90;67.20
30304;DHT22;17112;48.636;10.152;2022-12-29T14:39:38;12.90;67.00
30304;DHT22;17112;48.636;10.152;2022-12-29T14:47:32;12.80;67.00
30304;DHT22;17112;48.636;10.152;2022-12-29T14:50:15;12.80;67.00
30304;DHT22;17112;48.636;10.152;2022-12-29T14:53:02;12.80;67.10
30304;DHT22;17112;48.636;10.152;2022-12-29T14:58:02;12.70;67.00
30304;DHT22;17112;48.636;10.152;2022-12-29T15:00:36;12.70;67.10
30304;DHT22;17112;48.636;10.152;2022-12-29T15:05:57;12.60;67.30
30304;DHT22;17112;48.636;10.152;2022-12-29T15:08:26;12.60;67.20
30304;DHT22;17112;48.636;10.152;2022-12-29T15:11:03;12.60;67.10
30304;DHT22;17112;48.636;10.152;2022-12-29T15:13:36;12.50;67.20
30304;DHT22;17112;48.636;10.152;2022-12-29T15:16:02;12.40;67.20
30304;DHT22;17112;48.636;10.152;2022-12-29T15:18:32;12.40;67.20
30304;DHT22;17112;48.636;10.152;2022-12-29T15:21:04;12.30;67.30
30304;DHT22;17112;48.636;10.152;2022-12-29T15:23:33;12.20;67.20
30304;DHT22;17112;48.636;10.152;2022-12-29T15:26:02;12.20;67.20
30304;DHT22;17112;48.636;10.152;2022-12-29T15:31:05;11.90;67.30
30304;DHT22;17112;48.636;10.152;2022-12-29T15:33:31;11.90;67.30
30304;DHT22;17112;48.636;10.152;2022-12-29T15:36:02;11.80;67.40
30304;DHT22;17112;48.636;10.152;2022-12-29T15:38:29;11.70;67.50
30304;DHT22;17112;48.636;10.152;2022-12-29T15:41:05;11.60;67.60
30304;DHT22;17112;48.636;10.152;2022-12-29T15:46:37;11.50;68.10
30304;DHT22;17112;48.636;10.152;2022-12-29T15:49:08;11.40;67.80
30304;DHT22;17112;48.636;10.152;2022-12-29T15:51:37;11.30;68.00
30304;DHT22;17112;48.636;10.152;2022-12-29T15:54:03;11.20;67.90
30304;DHT22;17112;48.636;10.152;2022-12-29T15:56:30;11.10;68.10
30304;DHT22;17112;48.636;10.152;2022-12-29T15:58:56;11.00;68.10
30304;DHT22;17112;48.636;10.152;2022-12-29T16:03:53;10.90;68.50
30304;DHT22;17112;48.636;10.152;2022-12-29T16:06:27;10.80;68.40
30304;DHT22;17112;48.636;10.152;2022-12-29T16:08:57;10.80;68.50
30304;DHT22;17112;48.636;10.152;2022-12-29T16:11:39;10.70;68.40
30304;DHT22;17112;48.636;10.152;2022-12-29T16:14:30;10.60;68.50
30304;DHT22;17112;48.636;10.152;2022-12-29T16:17:00;10.50;68.80
30304;DHT22;17112;48.636;10.152;2022-12-29T16:19:27;10.50;68.40
30304;DHT22;17112;48.636;10.152;2022-12-29T16:21:54;10.40;68.30
30304;DHT22;17112;48.636;10.152;2022-12-29T16:24:31;10.30;68.50
30304;DHT22;17112;48.636;10.152;2022-12-29T16:29:32;10.20;68.90
30304;DHT22;17112;48.636;10.152;2022-12-29T16:31:59;10.10;68.80
30304;DHT22;17112;48.636;10.152;2022-12-29T16:35:03;10.00;68.90
30304;DHT22;17112;48.636;10.152;2022-12-29T16:37:33;9.90;69.40
30304;DHT22;17112;48.636;10.152;2022-12-29T16:45:38;9.80;69.10
30304;DHT22;17112;48.636;10.152;2022-12-29T16:49:15;9.70;69.60
30304;DHT22;17112;48.636;10.152;2022-12-29T16:51:18;9.60;69.20
30304;DHT22;17112;48.636;10.152;2022-12-29T16:53:52;9.60;69.40
30304;DHT22;17112;48.636;10.152;2022-12-29T16:56:24;9.50;69.40
30304;DHT22;17112;48.636;10.152;2022-12-29T17:01:29;9.40;69.50
30304;DHT22;17112;48.636;10.152;2022-12-29T17:03:59;9.40;69.30
30304;DHT22;17112;48.636;10.152;2022-12-29T17:06:25;9.30;69.40
30304;DHT22;17112;48.636;10.152;2022-12-29T17:08:51;9.20;69.30
30304;DHT22;17112;48.636;10.152;2022-12-29T17:11:30;9.20;69.50
30304;DHT22;17112;48.636;10.152;2022-12-29T17:16:59;9.10;69.90
30304;DHT22;17112;48.636;10.152;2022-12-29T17:19:33;9.00;69.60
30304;DHT22;17112;48.636;10.152;2022-12-29T17:21:59;8.90;69.90
30304;DHT22;17112;48.636;10.152;2022-12-29T17:24:25;8.90;70.00
30304;DHT22;17112;48.636;10.152;2022-12-29T17:26:53;8.90;70.20
30304;DHT22;17112;48.636;10.152;2022-12-29T17:29:30;8.80;70.20
30304;DHT22;17112;48.636;10.152;2022-12-29T17:31:57;8.80;70.30
30304;DHT22;17112;48.636;10.152;2022-12-29T17:34:23;8.80;70.40
30304;DHT22;17112;48.636;10.152;2022-12-29T17:36:49;8.70;70.40
30304;DHT22;17112;48.636;10.152;2022-12-29T17:39:14;8.70;70.50
30304;DHT22;17112;48.636;10.152;2022-12-29T17:41:40;8.70;70.50
30304;DHT22;17112;48.636;10.152;2022-12-29T17:44:06;8.70;70.50
30304;DHT22;17112;48.636;10.152;2022-12-29T17:46:32;8.70;70.60
30304;DHT22;17112;48.636;10.152;2022-12-29T17:48:58;8.70;70.60
30304;DHT22;17112;48.636;10.152;2022-12-29T17:51:24;8.50;70.50
30304;DHT22;17112;48.636;10.152;2022-12-29T17:53:50;8.60;70.70
30304;DHT22;17112;48.636;10.152;2022-12-29T17:56:17;8.50;70.80
30304;DHT22;17112;48.636;10.152;2022-12-29T17:58:45;8.60;71.00
30304;DHT22;17112;48.636;10.152;2022-12-29T18:01:11;8.60;71.00
30304;DHT22;17112;48.636;10.152;2022-12-29T18:03:38;8.50;71.00
30304;DHT22;17112;48.636;10.152;2022-12-29T18:06:06;8.50;71.10
30304;DHT22;17112;48.636;10.152;2022-12-29T18:08:36;8.50;71.20
30304;DHT22;17112;48.636;10.152;2022-12-29T18:11:03;8.50;71.30
30304;DHT22;17112;48.636;10.152;2022-12-29T18:13:31;8.50;71.30
30304;DHT22;17112;48.636;10.152;2022-12-29T18:15:59;8.50;71.30
30304;DHT22;17112;48.636;10.152;2022-12-29T18:18:26;8.50;71.40
30304;DHT22;17112;48.636;10.152;2022-12-29T18:20:54;8.40;71.40